Time;durP1;ratioP1;P1;durP2;ratioP2;P2;SDS_P1;SDS_P2;PMS_P1;PMS_P2;Temp;Humidity;BMP_temperature;BMP_pressure;BME280_temperature;BME280_humidity;BME280_pressure;Samples;Min_cycle;Max_cycle;Signal;HPM_P1;HPM_P2
2022/12/08 10:11:50;;;;;;;31.10;19.90;;;;;;;8.13;95.22;100698.11;105155;1310;548235;-75
2022/12/08 10:14:25;;;;;;;33.40;20.20;;;;;;;10.53;82.79;100684.39;105557;1313;22975;-62
2022/12/08 10:16:52;;;;;;;28.30;18.50;;;;;;;11.15;78.04;100686.70;105350;1311;22113;-75
2022/12/08 10:19:21;;;;;;;30.70;19.60;;;;;;;11.53;75.83;100679.63;105400;1305;21974;-61
2022/12/08 10:21:47;;;;;;;28.50;19.30;;;;;;;11.84;74.66;100674.36;105352;1312;21984;-74
2022/12/08 10:24:37;;;;;;;29.10;17.80;;;;;;;11.99;74.26;100671.53;105382;1310;211485;-60
2022/12/08 10:27:04;;;;;;;26.50;17.40;;;;;;;12.20;73.47;100672.48;105645;1309;21964;-61
2022/12/08 10:29:30;;;;;;;22.00;15.20;;;;;;;12.21;73.20;100675.81;105609;1309;21997;-61
2022/12/08 10:31:56;;;;;;;20.30;13.60;;;;;;;12.37;72.87;100672.41;105670;1310;22033;-76
2022/12/08 10:34:23;;;;;;;15.30;11.90;;;;;;;12.45;72.67;100674.40;105748;1309;21979;-69
2022/12/08 10:36:56;;;;;;;15.50;11.00;;;;;;;12.57;72.31;100669.47;105750;1309;21964;-62
2022/12/08 10:39:35;;;;;;;17.60;10.00;;;;;;;12.64;71.95;100669.88;105696;1310;21964;-75
2022/12/08 10:42:05;;;;;;;18.60;10.60;;;;;;;12.72;71.55;100676.09;105651;1308;22021;-62
2022/12/08 10:44:31;;;;;;;14.40;10.10;;;;;;;12.78;71.15;100673.71;105543;1303;24319;-62
2022/12/08 10:46:56;;;;;;;14.70;10.40;;;;;;;12.80;71.07;100672.45;105654;1309;21963;-62
2022/12/08 10:49:27;;;;;;;15.50;9.50;;;;;;;12.81;71.06;100667.33;105542;1309;23630;-62
2022/12/08 19:17:26;;;;;;;31.80;15.20;;;;;;;5.53;97.46;100697.02;104955;1308;548170;-70
2022/12/08 19:19:51;;;;;;;30.80;15.70;;;;;;;7.60;87.19;100687.46;105629;1307;21972;-73
2022/12/08 19:22:17;;;;;;;30.20;16.00;;;;;;;8.06;82.61;100679.27;105516;1312;21968;-72
2022/12/08 19:24:43;;;;;;;31.00;17.00;;;;;;;8.45;80.31;100681.83;105520;1311;21981;-70
2022/12/08 19:27:08;;;;;;;23.30;14.40;;;;;;;8.79;78.51;100687.11;105511;1312;21988;-70
2022/12/08 19:29:35;;;;;;;30.20;16.10;;;;;;;9.06;77.33;100686.92;105364;1310;299734;-72
2022/12/08 19:32:02;;;;;;;25.60;14.20;;;;;;;9.13;76.84;100684.81;105627;1301;21972;-70
2022/12/08 19:34:28;;;;;;;21.90;13.90;;;;;;;9.27;76.22;100686.89;105564;1309;21950;-70
2022/12/08 19:36:53;;;;;;;21.10;11.90;;;;;;;9.42;75.81;100685.28;105624;1307;23649;-69
2022/12/08 19:44:59;;;;;;;15.20;9.60;;;;;;;9.93;74.17;100676.33;105594;1308;21957;-70
2022/12/08 19:47:25;;;;;;;15.30;10.80;;;;;;;10.09;73.42;100679.06;105625;1297;22009;-73
2022/12/08 19:49:53;;;;;;;12.20;8.60;;;;;;;10.04;73.15;100679.97;105531;1307;21964;-73
2022/12/08 19:52:19;;;;;;;14.30;8.60;;;;;;;10.23;72.49;100678.80;105739;1307;21992;-72
2022/12/08 19:54:45;;;;;;;13.60;9.20;;;;;;;10.41;71.97;100672.39;105683;1308;21968;-70
2022/12/08 19:57:11;;;;;;;17.90;10.00;;;;;;;10.48;71.55;100672.36;105794;1309;21959;-69
2022/12/08 19:59:38;;;;;;;14.20;9.30;;;;;;;10.51;71.28;100673.91;105726;1308;21978;-72
2022/12/08 20:02:04;;;;;;;14.50;9.30;;;;;;;10.52;71.17;100677.23;105716;1309;21974;-72
2022/12/08 20:04:30;;;;;;;15.30;10.40;;;;;;;10.49;70.80;100683.39;105678;1309;21957;-73
2022/12/08 20:06:56;;;;;;;13.90;9.50;;;;;;;10.25;71.29;100683.52;105662;1309;21969;-70
2022/12/08 20:09:22;;;;;;;15.30;9.40;;;;;;;10.40;70.95;100680.98;105666;1307;21977;-73
2022/12/08 20:11:49;;;;;;;14.40;8.60;;;;;;;10.61;70.13;100680.69;105642;1309;21967;-73
2022/12/08 20:14:16;;;;;;;13.40;8.10;;;;;;;10.42;70.75;100678.86;105605;1309;23679;-73
2022/12/08 20:16:42;;;;;;;13.10;9.10;;;;;;;10.35;71.07;100672.75;105649;1307;24180;-73
2022/12/08 20:19:08;;;;;;;17.20;10.90;;;;;;;10.46;71.10;100674.46;105605;1309;23766;-70
2022/12/08 20:21:34;;;;;;;12.90;9.20;;;;;;;10.51;70.82;100674.45;105595;1309;21968;-70
2022/12/08 20:23:59;;;;;;;16.00;8.50;;;;;;;10.45;71.08;100672.73;105682;1308;21968;-73
2022/12/08 20:26:25;;;;;;;13.00;8.40;;;;;;;10.52;70.96;100674.95;105624;1308;21961;-74
2022/12/08 20:28:51;;;;;;;14.20;10.00;;;;;;;10.67;70.31;100675.02;105603;1308;21987;-73
2022/12/08 20:31:22;;;;;;;13.80;9.70;;;;;;;10.67;69.94;100675.55;105596;1308;24060;-70
2022/12/08 20:33:47;;;;;;;12.50;8.50;;;;;;;10.63;70.04;100673.46;105681;1308;21957;-70
2022/12/08 20:36:17;;;;;;;14.50;9.40;;;;;;;10.67;70.05;100671.52;105556;1309;21980;-70
2022/12/08 20:38:46;;;;;;;12.50;8.70;;;;;;;10.72;69.84;100671.30;105604;1307;21969;-69
2022/12/08 20:41:14;;;;;;;12.60;8.30;;;;;;;10.66;69.72;100670.81;105605;1309;21978;-70
2022/12/08 20:43:44;;;;;;;13.00;7.40;;;;;;;10.57;69.93;100668.60;105613;1305;21983;-73
2022/12/08 20:46:11;;;;;;;11.90;8.40;;;;;;;10.66;69.66;100670.27;105697;1308;21975;-69
2022/12/08 20:48:37;;;;;;;13.80;9.30;;;;;;;10.72;69.24;100665.33;105627;1309;21973;-73
2022/12/08 20:51:02;;;;;;;13.80;9.30;;;;;;;10.74;69.34;100661.62;105737;1301;23720;-73
2022/12/08 20:53:28;;;;;;;12.10;8.60;;;;;;;10.65;69.47;100656.24;105683;1306;22163;-73
2022/12/08 20:55:54;;;;;;;16.00;8.60;;;;;;;10.46;69.72;100656.22;105737;1305;21965;-73
2022/12/08 20:58:20;;;;;;;10.80;7.20;;;;;;;10.37;69.95;100655.92;105686;1306;21974;-70
2022/12/08 21:00:46;;;;;;;11.70;7.40;;;;;;;10.32;69.96;100653.49;105662;1297;21980;-70
2022/12/08 21:03:14;;;;;;;9.90;7.20;;;;;;;10.29;69.90;100648.42;105697;1306;22105;-73
2022/12/08 21:05:45;;;;;;;11.40;7.70;;;;;;;10.26;70.00;100644.23;105750;1306;21971;-73
2022/12/08 21:08:11;;;;;;;11.60;7.30;;;;;;;10.26;70.06;100640.02;105658;1306;21964;-69
2022/12/08 21:10:38;;;;;;;12.50;7.80;;;;;;;10.30;69.90;100638.42;105625;1297;21965;-69
2022/12/08 21:13:04;;;;;;;11.60;7.10;;;;;;;10.37;69.80;100637.50;105656;1306;22926;-75
2022/12/08 21:15:30;;;;;;;10.60;6.60;;;;;;;10.44;69.51;100637.11;105691;1306;23766;-71
2022/12/08 21:17:56;;;;;;;12.10;6.90;;;;;;;10.46;69.26;100633.25;105667;1306;23723;-74
2022/12/08 21:20:22;;;;;;;9.50;6.60;;;;;;;10.41;69.41;100626.60;105726;1306;22898;-75
2022/12/08 21:22:48;;;;;;;9.10;6.20;;;;;;;10.43;69.10;100619.58;105638;1301;21971;-74
2022/12/08 21:25:13;;;;;;;11.00;7.30;;;;;;;10.46;69.01;100618.86;105658;1306;21972;-71
2022/12/08 21:27:39;;;;;;;9.70;6.20;;;;;;;10.42;68.96;100618.35;105730;1306;21972;-71
2022/12/08 21:30:06;;;;;;;8.90;5.60;;;;;;;10.40;69.13;100616.61;105743;1303;21963;-69
2022/12/08 21:32:31;;;;;;;8.70;6.20;;;;;;;10.46;68.85;100614.30;105786;1306;22011;-75
2022/12/08 21:34:57;;;;;;;8.40;6.00;;;;;;;10.50;68.71;100614.27;105811;1306;23611;-72
2022/12/08 21:37:23;;;;;;;8.10;5.30;;;;;;;10.54;68.65;100613.89;105772;1306;22067;-70
2022/12/08 21:39:49;;;;;;;11.40;6.50;;;;;;;10.55;68.53;100612.83;105683;1306;21968;-70
2022/12/08 21:44:59;;;;;;;12.10;7.50;;;;;;;10.52;68.60;100619.52;105640;1302;21961;-70
2022/12/08 21:47:25;;;;;;;9.80;6.70;;;;;;;10.45;68.58;100619.56;105673;1306;21949;-70
2022/12/08 21:49:51;;;;;;;10.00;6.00;;;;;;;10.50;68.27;100617.23;105681;1306;21958;-74
2022/12/08 21:52:16;;;;;;;9.50;6.10;;;;;;;10.65;67.91;100618.52;105680;1298;22438;-70
2022/12/08 21:54:42;;;;;;;8.30;5.10;;;;;;;10.68;67.75;100617.79;105732;1306;22815;-70
2022/12/08 21:57:08;;;;;;;9.70;6.20;;;;;;;10.55;68.14;100623.70;105649;1306;21957;-73
2022/12/08 21:59:34;;;;;;;10.10;6.00;;;;;;;10.55;68.12;100627.73;105646;1306;23305;-69
2022/12/08 22:02:00;;;;;;;9.50;6.10;;;;;;;10.65;67.93;100626.24;105661;1306;21957;-69
2022/12/08 22:04:26;;;;;;;9.30;6.40;;;;;;;10.76;67.69;100626.85;105684;1306;21966;-70
2022/12/08 22:06:53;;;;;;;9.90;6.40;;;;;;;10.78;67.34;100626.33;105787;1306;21973;-69
2022/12/08 22:09:19;;;;;;;10.40;6.90;;;;;;;10.75;67.21;100627.39;105736;1306;21973;-70
2022/12/08 22:11:45;;;;;;;11.70;6.90;;;;;;;10.73;67.35;100619.15;105752;1306;21965;-73
2022/12/08 22:14:11;;;;;;;10.70;6.90;;;;;;;10.81;66.94;100616.09;105654;1306;22753;-73
2022/12/08 22:16:37;;;;;;;11.30;6.90;;;;;;;10.62;67.06;100613.11;105680;1306;22083;-70
2022/12/08 22:19:02;;;;;;;9.00;6.50;;;;;;;10.51;67.52;100610.92;105723;1306;21989;-73
2022/12/08 22:21:28;;;;;;;9.30;6.10;;;;;;;10.43;67.83;100608.17;105753;1306;22187;-69
2022/12/08 22:23:54;;;;;;;10.00;6.20;;;;;;;10.43;68.07;100600.80;105749;1305;21968;-73
2022/12/08 22:26:20;;;;;;;12.50;7.60;;;;;;;10.55;67.86;100600.71;105664;1306;22031;-73
2022/12/08 22:28:45;;;;;;;9.70;6.40;;;;;;;10.62;67.28;100597.83;105657;1306;23615;-70
2022/12/08 22:31:16;;;;;;;11.50;6.90;;;;;;;10.60;67.30;100601.54;105798;1299;21967;-73
2022/12/08 22:33:42;;;;;;;11.90;7.50;;;;;;;10.63;67.08;100602.92;105757;1306;21983;-70
2022/12/08 22:36:16;;;;;;;9.80;6.50;;;;;;;10.66;67.02;100604.12;105777;1307;21956;-70
2022/12/08 22:38:42;;;;;;;10.20;7.30;;;;;;;10.67;67.02;100602.01;105730;1306;22009;-74
2022/12/08 22:41:07;;;;;;;9.30;6.50;;;;;;;10.69;67.11;100596.72;105753;1306;23361;-70
2022/12/08 22:43:34;;;;;;;11.40;6.70;;;;;;;10.70;66.94;100591.27;105649;1305;21941;-69
2022/12/08 22:46:00;;;;;;;10.70;6.90;;;;;;;10.68;66.88;100591.12;105666;1306;21998;-70
2022/12/08 22:48:26;;;;;;;10.10;7.20;;;;;;;10.69;66.98;100592.16;105639;1306;21972;-70
2022/12/08 22:50:58;;;;;;;12.30;7.20;;;;;;;10.70;66.71;100592.33;105639;1306;21972;-74
2022/12/08 22:53:24;;;;;;;9.30;6.80;;;;;;;10.75;66.65;100589.13;105652;1306;21990;-73
2022/12/08 22:55:49;;;;;;;11.30;6.60;;;;;;;10.81;66.39;100586.61;105662;1306;23714;-70
2022/12/08 22:58:15;;;;;;;8.90;6.10;;;;;;;10.85;65.92;100589.73;105739;1306;21965;-74
2022/12/08 23:00:41;;;;;;;8.90;6.30;;;;;;;10.77;66.01;100585.59;105717;1306;23097;-70
2022/12/08 23:03:06;;;;;;;10.60;7.00;;;;;;;10.80;66.08;100584.33;105643;1306;21951;-70
2022/12/08 23:05:36;;;;;;;11.40;6.70;;;;;;;10.90;65.67;100582.13;105674;1306;22015;-73
2022/12/08 23:08:02;;;;;;;9.30;6.40;;;;;;;10.95;65.62;100582.26;105689;1297;21972;-70
2022/12/08 23:10:28;;;;;;;10.20;6.80;;;;;;;10.99;65.34;100575.19;105791;1306;21977;-70
